createdAt,value
2019-02-23T00:01:04.683Z,99.90
2019-02-23T00:03:34.163Z,99.90
2019-02-23T00:06:03.845Z,99.90
2019-02-23T00:08:33.315Z,99.90
2019-02-23T00:11:02.767Z,99.90
2019-02-23T00:13:32.296Z,99.90
2019-02-23T00:16:01.756Z,99.90
2019-02-23T00:18:32.425Z,99.90
2019-02-23T00:21:01.904Z,99.90
2019-02-23T00:23:31.384Z,99.90
2019-02-23T00:26:00.844Z,99.90
2019-02-23T00:28:30.425Z,99.90
2019-02-23T00:30:59.899Z,99.90
2019-02-23T00:33:29.356Z,99.90
2019-02-23T00:35:58.868Z,99.90
2019-02-23T00:38:28.330Z,99.90
2019-02-23T00:40:57.816Z,99.90
2019-02-23T00:43:27.281Z,99.90
2019-02-23T00:45:56.924Z,99.90
2019-02-23T00:48:26.376Z,99.90
2019-02-23T00:50:55.897Z,99.90
2019-02-23T00:53:25.352Z,99.90
2019-02-23T00:55:54.823Z,99.90
2019-02-23T00:58:24.314Z,99.90
2019-02-23T01:00:53.775Z,99.90
2019-02-23T01:03:23.251Z,99.90
2019-02-23T01:05:52.701Z,99.90
2019-02-23T01:08:22.202Z,99.90
2019-02-23T01:10:58.158Z,99.90
2019-02-23T01:13:22.833Z,99.90
2019-02-23T01:15:52.316Z,99.90
2019-02-23T01:18:21.780Z,99.90
2019-02-23T01:20:51.343Z,99.90
2019-02-23T01:23:20.808Z,99.90
2019-02-23T01:25:50.645Z,99.90
2019-02-23T01:28:20.106Z,99.90
2019-02-23T01:30:49.581Z,99.90
2019-02-23T01:33:19.105Z,99.90
2019-02-23T01:35:48.549Z,99.90
2019-02-23T01:38:18.040Z,99.90
2019-02-23T01:40:47.627Z,99.90
2019-02-23T01:43:17.133Z,99.90
2019-02-23T01:45:46.612Z,99.90
2019-02-23T01:48:16.123Z,99.90
2019-02-23T01:50:45.578Z,99.90
2019-02-23T01:53:15.036Z,99.90
2019-02-23T01:55:44.548Z,99.90
2019-02-23T01:58:14.018Z,99.90
2019-02-23T02:00:43.508Z,99.90
2019-02-23T02:03:12.976Z,99.90
2019-02-23T02:05:42.488Z,99.90
2019-02-23T02:08:11.961Z,99.90
2019-02-23T02:10:41.425Z,99.90
2019-02-23T02:13:10.956Z,99.90
2019-02-23T02:15:40.597Z,99.90
2019-02-23T02:18:10.024Z,99.90
2019-02-23T02:20:39.496Z,99.90
2019-02-23T02:23:08.980Z,99.90
2019-02-23T02:25:38.450Z,99.90
2019-02-23T02:28:07.936Z,99.90
2019-02-23T02:30:37.429Z,99.90
2019-02-23T02:33:06.901Z,99.90
2019-02-23T02:35:36.404Z,99.90
2019-02-23T02:38:06.117Z,99.90
2019-02-23T02:40:35.604Z,99.90
2019-02-23T02:43:05.093Z,99.90
2019-02-23T02:45:34.588Z,99.90
2019-02-23T02:48:04.044Z,99.90
2019-02-23T02:50:33.507Z,99.90
2019-02-23T02:53:02.993Z,99.90
2019-02-23T02:55:32.458Z,99.90
2019-02-23T02:58:01.935Z,99.90
2019-02-23T03:00:31.411Z,99.90
2019-02-23T03:03:01.434Z,99.90
2019-02-23T03:05:30.909Z,99.90
2019-02-23T03:08:00.391Z,99.90
2019-02-23T03:10:29.873Z,99.90
2019-02-23T03:12:59.401Z,99.90
2019-02-23T03:15:28.869Z,99.90
2019-02-23T03:17:58.396Z,99.90
2019-02-23T03:20:36.170Z,99.90
2019-02-23T03:22:58.997Z,99.90
2019-02-23T03:25:28.467Z,99.90
2019-02-23T03:27:57.952Z,99.90
2019-02-23T03:30:27.415Z,99.90
2019-02-23T03:32:56.916Z,99.90
2019-02-23T03:35:26.374Z,99.90
2019-02-23T03:37:56.192Z,99.90
2019-02-23T03:40:25.653Z,99.90
2019-02-23T03:42:55.121Z,99.90
2019-02-23T03:45:24.617Z,99.90
2019-02-23T03:47:54.088Z,99.90
2019-02-23T03:50:23.593Z,99.90
2019-02-23T03:52:53.065Z,99.90
2019-02-23T03:55:22.559Z,99.90
2019-02-23T03:57:52.086Z,99.90
2019-02-23T04:00:21.550Z,99.90
2019-02-23T04:02:51.041Z,99.90
2019-02-23T04:05:20.499Z,99.90
2019-02-23T04:07:49.992Z,99.90
2019-02-23T04:10:19.449Z,99.90
2019-02-23T04:12:48.960Z,99.90
2019-02-23T04:15:18.441Z,99.90
2019-02-23T04:17:47.920Z,99.90
2019-02-23T04:20:17.408Z,99.90
2019-02-23T04:22:46.895Z,99.90
2019-02-23T04:25:16.401Z,99.90
2019-02-23T04:27:46.212Z,99.90
2019-02-23T04:30:15.713Z,99.90
2019-02-23T04:32:45.180Z,99.90
2019-02-23T04:35:14.657Z,99.90
2019-02-23T04:37:44.145Z,99.90
2019-02-23T04:40:13.634Z,99.90
2019-02-23T04:42:43.129Z,99.90
2019-02-23T04:45:12.597Z,99.90
2019-02-23T04:47:42.183Z,99.90
2019-02-23T04:50:12.527Z,99.90
2019-02-23T04:52:42.032Z,99.90
2019-02-23T04:55:11.540Z,99.90
2019-02-23T04:57:41.012Z,99.90
2019-02-23T05:00:11.923Z,99.90
2019-02-23T05:02:41.453Z,99.90
2019-02-23T05:05:11.177Z,99.90
2019-02-23T05:07:44.698Z,99.90
2019-02-23T05:10:14.148Z,99.90
2019-02-23T05:12:43.698Z,99.90
2019-02-23T05:15:13.159Z,99.90
2019-02-23T05:17:42.664Z,99.90
2019-02-23T05:20:12.150Z,99.90
2019-02-23T05:22:41.741Z,99.90
2019-02-23T05:25:11.226Z,99.90
2019-02-23T05:27:40.687Z,99.90
2019-02-23T05:30:10.555Z,99.90
2019-02-23T05:32:40.021Z,99.90
2019-02-23T05:35:10.724Z,99.90
2019-02-23T05:37:40.221Z,99.90
2019-02-23T05:40:10.293Z,99.90
2019-02-23T05:42:39.774Z,99.90
2019-02-23T05:45:09.249Z,99.90
2019-02-23T05:47:38.770Z,99.90
2019-02-23T05:50:08.348Z,99.90
2019-02-23T05:52:37.851Z,99.90
2019-02-23T05:55:07.381Z,99.90
2019-02-23T05:57:36.847Z,99.90
2019-02-23T06:00:07.267Z,99.90
2019-02-23T06:02:36.778Z,99.90
2019-02-23T06:05:06.615Z,99.90
2019-02-23T06:07:36.159Z,99.90
2019-02-23T06:10:07.069Z,99.90
2019-02-23T06:12:36.560Z,99.90
2019-02-23T06:15:07.451Z,99.90
2019-02-23T06:17:36.934Z,99.90
2019-02-23T06:20:06.963Z,99.90
2019-02-23T06:22:36.498Z,99.90
2019-02-23T06:25:06.525Z,99.90
2019-02-23T06:27:36.023Z,99.90
2019-02-23T06:30:06.512Z,99.90
2019-02-23T06:32:36.021Z,99.90
2019-02-23T06:35:05.741Z,99.90
2019-02-23T06:37:35.243Z,99.90
2019-02-23T06:40:05.204Z,99.90
2019-02-23T06:42:34.679Z,99.90
2019-02-23T06:45:04.494Z,99.90
2019-02-23T06:47:33.957Z,99.90
2019-02-23T06:50:03.452Z,99.90
2019-02-23T06:52:32.922Z,99.90
2019-02-23T06:55:02.450Z,99.90
2019-02-23T06:57:32.064Z,99.90
2019-02-23T07:00:01.783Z,99.90
2019-02-23T07:02:31.270Z,99.90
2019-02-23T07:05:00.767Z,99.90
2019-02-23T07:07:30.306Z,99.90
2019-02-23T07:09:59.816Z,99.90
2019-02-23T07:12:29.364Z,99.90
2019-02-23T07:14:58.887Z,99.90
2019-02-23T07:17:28.359Z,99.90
2019-02-23T07:19:57.908Z,99.90
2019-02-23T07:22:27.408Z,99.90
2019-02-23T07:24:56.870Z,99.90
2019-02-23T07:27:26.369Z,99.90
2019-02-23T07:29:55.820Z,99.90
2019-02-23T07:32:25.288Z,99.90
2019-02-23T07:34:54.799Z,99.90
2019-02-23T07:37:24.258Z,99.90
2019-02-23T07:39:53.745Z,99.90
2019-02-23T07:42:23.209Z,99.90
2019-02-23T07:44:52.698Z,99.90
2019-02-23T07:47:22.195Z,99.90
2019-02-23T07:49:51.667Z,99.90
2019-02-23T07:52:26.317Z,99.90
2019-02-23T07:54:52.324Z,99.90
2019-02-23T07:57:21.808Z,99.90
2019-02-23T07:59:51.277Z,99.90
2019-02-23T08:02:20.776Z,99.90
2019-02-23T08:04:50.249Z,99.90
2019-02-23T08:07:19.727Z,99.90
2019-02-23T08:09:49.242Z,99.90
2019-02-23T08:12:18.769Z,99.90
2019-02-23T08:14:48.231Z,99.90
2019-02-23T08:17:17.748Z,99.90
2019-02-23T08:19:47.212Z,99.90
2019-02-23T08:22:16.705Z,99.90
2019-02-23T08:24:46.192Z,99.90
2019-02-23T08:27:15.653Z,99.90
2019-02-23T08:29:45.149Z,99.90
2019-02-23T08:32:15.528Z,99.90
2019-02-23T08:34:45.031Z,99.90
2019-02-23T08:37:14.501Z,99.90
2019-02-23T08:39:43.992Z,99.90
2019-02-23T08:42:13.449Z,99.90
2019-02-23T08:44:42.907Z,99.90
2019-02-23T08:47:12.433Z,99.90
2019-02-23T08:49:41.906Z,99.90
2019-02-23T08:52:13.264Z,99.90
2019-02-23T08:54:42.736Z,99.90
2019-02-23T08:57:12.250Z,99.90
2019-02-23T08:59:41.733Z,99.90
2019-02-23T09:02:11.230Z,99.90
2019-02-23T09:04:40.744Z,99.90
2019-02-23T09:07:10.252Z,99.90
2019-02-23T09:09:39.740Z,99.90
2019-02-23T09:12:09.267Z,99.90
2019-02-23T09:14:38.776Z,99.90
2019-02-23T09:17:08.610Z,99.90
2019-02-23T09:19:38.072Z,99.90
2019-02-23T09:22:07.560Z,99.90
2019-02-23T09:24:37.055Z,99.90
2019-02-23T09:27:06.537Z,99.90
2019-02-23T09:29:35.991Z,99.90
2019-02-23T09:32:05.515Z,99.90
2019-02-23T09:34:34.971Z,99.90
2019-02-23T09:37:04.488Z,99.90
2019-02-23T09:39:33.964Z,99.90
2019-02-23T09:42:07.406Z,99.90
2019-02-23T09:44:34.604Z,99.90
2019-02-23T09:47:04.076Z,99.90
2019-02-23T09:49:33.537Z,99.90
2019-02-23T09:52:03.074Z,99.90
2019-02-23T09:54:32.542Z,99.90
2019-02-23T09:57:02.067Z,99.90
2019-02-23T09:59:31.506Z,99.90
2019-02-23T10:02:00.976Z,99.90
2019-02-23T10:04:30.482Z,99.90
2019-02-23T10:06:59.951Z,99.90
2019-02-23T10:09:29.464Z,98.60
2019-02-23T10:11:59.020Z,99.00
2019-02-23T10:14:28.536Z,98.70
2019-02-23T10:16:57.996Z,98.80
2019-02-23T10:19:27.460Z,98.60
2019-02-23T10:21:56.944Z,97.50
2019-02-23T10:24:26.404Z,97.20
2019-02-23T10:26:55.930Z,96.50
2019-02-23T10:29:25.389Z,96.40
2019-02-23T10:31:54.885Z,93.10
2019-02-23T10:34:24.346Z,93.00
2019-02-23T10:36:53.793Z,92.70
2019-02-23T10:39:23.288Z,92.70
2019-02-23T10:41:52.748Z,93.20
2019-02-23T10:44:22.193Z,92.30
2019-02-23T10:46:51.676Z,89.60
2019-02-23T10:49:21.128Z,86.20
2019-02-23T10:51:50.592Z,85.20
2019-02-23T10:54:20.083Z,80.80
2019-02-23T10:56:49.580Z,78.10
2019-02-23T10:59:19.025Z,79.60
2019-02-23T11:01:48.524Z,78.80
2019-02-23T11:04:18.089Z,71.90
2019-02-23T11:06:47.538Z,65.20
2019-02-23T11:09:21.706Z,60.40
2019-02-23T11:11:51.185Z,58.20
2019-02-23T11:14:20.640Z,59.70
2019-02-23T11:16:50.155Z,57.00
2019-02-23T11:19:19.611Z,58.70
2019-02-23T11:21:49.064Z,62.10
2019-02-23T11:24:18.554Z,58.30
2019-02-23T11:26:48.028Z,59.00
2019-02-23T11:29:17.489Z,60.40
2019-02-23T11:31:46.979Z,62.60
2019-02-23T11:34:16.416Z,65.10
2019-02-23T11:36:45.893Z,68.70
2019-02-23T11:39:15.394Z,76.30
2019-02-23T11:41:44.844Z,68.40
2019-02-23T11:44:14.331Z,64.30
2019-02-23T11:46:59.385Z,64.60
2019-02-23T11:49:14.937Z,63.60
2019-02-23T11:51:44.400Z,63.10
2019-02-23T11:54:13.885Z,58.80
2019-02-23T11:56:43.328Z,55.60
2019-02-23T11:59:12.824Z,62.10
2019-02-23T12:01:42.267Z,56.00
2019-02-23T12:04:11.762Z,55.40
2019-02-23T12:06:41.244Z,53.60
2019-02-23T12:09:10.732Z,51.90
2019-02-23T12:11:40.216Z,52.40
2019-02-23T12:14:09.669Z,54.50
2019-02-23T12:16:39.317Z,54.80
2019-02-23T12:19:08.776Z,54.20
2019-02-23T12:21:38.226Z,52.90
2019-02-23T12:24:07.716Z,53.50
2019-02-23T12:26:37.169Z,52.50
2019-02-23T12:29:06.652Z,51.30
2019-02-23T12:31:36.116Z,52.90
2019-02-23T12:34:05.616Z,51.90
2019-02-23T12:36:35.095Z,49.00
2019-02-23T12:39:04.995Z,46.80
2019-02-23T12:41:34.475Z,47.30
2019-02-23T12:44:03.944Z,47.60
2019-02-23T12:46:33.449Z,46.00
2019-02-23T12:49:02.896Z,47.10
2019-02-23T12:51:32.353Z,48.30
2019-02-23T12:54:01.848Z,46.00
2019-02-23T12:56:31.305Z,46.80
2019-02-23T12:59:00.843Z,47.10
2019-02-23T13:01:30.253Z,47.50
2019-02-23T13:03:59.749Z,45.40
2019-02-23T13:06:29.208Z,46.30
2019-02-23T13:09:20.456Z,45.80
2019-02-23T13:12:20.120Z,44.20
2019-02-23T13:14:59.996Z,45.30
2019-02-23T13:17:54.728Z,46.00
2019-02-23T13:21:01.029Z,46.90
2019-02-23T13:24:28.162Z,45.90
2019-02-23T13:27:11.885Z,45.90
2019-02-23T13:30:31.206Z,44.20
2019-02-23T13:33:59.997Z,45.10
2019-02-23T13:37:24.586Z,43.60
2019-02-23T13:40:18.074Z,43.60
2019-02-23T13:43:49.384Z,47.00
2019-02-23T13:46:40.824Z,44.10
2019-02-23T13:49:32.761Z,45.00
2019-02-23T13:52:52.523Z,43.80
2019-02-23T13:56:11.035Z,43.30
2019-02-23T13:59:05.088Z,42.90
2019-02-23T14:02:33.175Z,42.00
2019-02-23T14:05:29.146Z,41.70
2019-02-23T14:08:43.430Z,39.90
2019-02-23T14:11:38.840Z,40.30
2019-02-23T14:14:35.338Z,42.00
2019-02-23T14:17:20.324Z,42.40
2019-02-23T14:20:27.992Z,41.90
2019-02-23T14:23:16.637Z,41.70
2019-02-23T14:26:21.580Z,41.00
2019-02-23T14:29:22.368Z,42.10
2019-02-23T14:32:29.816Z,40.00
2019-02-23T14:35:30.352Z,41.40
2019-02-23T14:38:42.295Z,40.30
2019-02-23T14:42:10.532Z,37.90
2019-02-23T14:45:16.205Z,37.90
2019-02-23T14:48:18.375Z,39.50
2019-02-23T14:51:24.370Z,37.60
2019-02-23T14:54:36.838Z,37.60
2019-02-23T14:57:56.285Z,37.60
2019-02-23T15:01:02.572Z,36.50
2019-02-23T15:04:00.052Z,36.30
2019-02-23T15:07:00.005Z,36.40
2019-02-23T15:09:53.597Z,36.50
2019-02-23T15:13:09.785Z,37.50
2019-02-23T15:16:19.202Z,36.70
2019-02-23T15:19:14.893Z,33.90
2019-02-23T15:22:20.847Z,33.70
2019-02-23T15:25:35.892Z,33.70
2019-02-23T15:28:54.633Z,35.60
2019-02-23T15:32:02.792Z,35.10
2019-02-23T15:35:28.405Z,35.90
2019-02-23T15:38:43.577Z,35.70
2019-02-23T15:41:22.324Z,35.80
2019-02-23T15:44:22.302Z,36.30
2019-02-23T15:47:27.195Z,36.10
2019-02-23T15:49:56.628Z,37.20
2019-02-23T15:52:26.126Z,36.80
2019-02-23T15:54:55.611Z,36.90
2019-02-23T15:57:25.073Z,42.70
2019-02-23T15:59:54.556Z,42.20
2019-02-23T16:02:24.140Z,42.00
2019-02-23T16:04:53.631Z,41.70
2019-02-23T16:07:23.100Z,39.60
2019-02-23T16:09:52.554Z,39.50
2019-02-23T16:12:22.035Z,39.50
2019-02-23T16:14:51.560Z,40.00
2019-02-23T16:17:21.083Z,40.20
2019-02-23T16:19:50.606Z,40.20
2019-02-23T16:22:20.045Z,40.00
2019-02-23T16:24:49.528Z,39.60
2019-02-23T16:27:19.025Z,39.50
2019-02-23T16:29:49.318Z,38.80
2019-02-23T16:32:24.142Z,38.80
2019-02-23T16:34:53.606Z,39.40
2019-02-23T16:37:23.124Z,39.00
2019-02-23T16:39:52.581Z,40.00
2019-02-23T16:42:22.089Z,40.20
2019-02-23T16:44:51.575Z,40.60
2019-02-23T16:47:21.089Z,41.40
2019-02-23T16:49:50.549Z,41.70
2019-02-23T16:52:20.004Z,42.10
2019-02-23T16:54:49.605Z,42.60
2019-02-23T16:57:19.092Z,42.70
2019-02-23T16:59:48.593Z,42.80
2019-02-23T17:02:18.042Z,43.70
2019-02-23T17:04:53.547Z,43.60
2019-02-23T17:07:18.765Z,44.70
2019-02-23T17:09:48.260Z,45.00
2019-02-23T17:12:17.757Z,46.00
2019-02-23T17:14:47.232Z,45.40
2019-02-23T17:17:16.739Z,45.50
2019-02-23T17:19:46.269Z,45.40
2019-02-23T17:22:15.799Z,45.90
2019-02-23T17:24:45.264Z,46.20
2019-02-23T17:27:14.727Z,46.30
2019-02-23T17:29:44.204Z,50.20
2019-02-23T17:32:13.695Z,50.10
2019-02-23T17:34:43.213Z,54.30
2019-02-23T17:37:12.705Z,57.20
2019-02-23T17:39:42.193Z,52.30
2019-02-23T17:42:11.703Z,52.60
2019-02-23T17:44:45.462Z,54.10
2019-02-23T17:47:15.014Z,61.10
2019-02-23T17:49:44.442Z,65.90
2019-02-23T17:52:13.929Z,61.20
2019-02-23T17:54:43.425Z,64.70
2019-02-23T17:57:12.904Z,74.90
2019-02-23T17:59:42.597Z,72.90
2019-02-23T18:02:12.121Z,69.30
2019-02-23T18:04:41.639Z,72.20
2019-02-23T18:07:11.505Z,78.80
2019-02-23T18:09:41.080Z,75.70
2019-02-23T18:12:10.896Z,83.60
2019-02-23T18:14:40.397Z,75.70
2019-02-23T18:17:09.872Z,76.10
2019-02-23T18:19:39.361Z,68.00
2019-02-23T18:22:08.822Z,84.30
2019-02-23T18:24:38.404Z,75.00
2019-02-23T18:27:08.560Z,83.10
2019-02-23T18:29:38.054Z,80.90
2019-02-23T18:32:07.521Z,81.20
2019-02-23T18:34:37.001Z,87.30
2019-02-23T18:37:06.594Z,90.10
2019-02-23T18:39:36.069Z,91.30
2019-02-23T18:42:05.641Z,81.80
2019-02-23T18:44:35.068Z,77.40
2019-02-23T18:47:04.659Z,79.50
2019-02-23T18:49:34.140Z,87.40
2019-02-23T18:52:03.618Z,86.80
2019-02-23T18:54:33.116Z,92.10
2019-02-23T18:57:02.591Z,92.90
2019-02-23T18:59:32.087Z,93.50
2019-02-23T19:02:01.568Z,93.10
2019-02-23T19:04:31.074Z,92.40
2019-02-23T19:07:00.547Z,88.10
2019-02-23T19:09:30.061Z,93.90
2019-02-23T19:11:59.540Z,93.00
2019-02-23T19:14:29.004Z,95.10
2019-02-23T19:16:58.494Z,90.70
2019-02-23T19:19:27.968Z,92.00
2019-02-23T19:21:57.516Z,95.70
2019-02-23T19:24:26.987Z,93.70
2019-02-23T19:26:56.521Z,90.20
2019-02-23T19:29:25.989Z,91.30
2019-02-23T19:31:55.477Z,91.80
2019-02-23T19:34:24.988Z,91.00
2019-02-23T19:36:54.487Z,90.80
2019-02-23T19:39:24.001Z,91.10
2019-02-23T19:41:53.496Z,91.80
2019-02-23T19:44:23.004Z,92.50
2019-02-23T19:46:59.490Z,92.60
2019-02-23T19:49:29.005Z,93.00
2019-02-23T19:51:58.482Z,93.10
2019-02-23T19:54:27.960Z,93.10
2019-02-23T19:56:57.448Z,93.10
2019-02-23T19:59:26.925Z,93.30
2019-02-23T20:01:56.427Z,94.40
2019-02-23T20:04:25.907Z,94.10
2019-02-23T20:06:55.753Z,94.40
2019-02-23T20:09:25.232Z,94.80
2019-02-23T20:11:54.697Z,95.00
2019-02-23T20:14:24.196Z,95.00
2019-02-23T20:16:53.674Z,95.20
2019-02-23T20:19:23.173Z,95.30
2019-02-23T20:21:52.645Z,95.30
2019-02-23T20:24:22.183Z,95.80
2019-02-23T20:26:55.588Z,96.00
2019-02-23T20:29:22.860Z,96.10
2019-02-23T20:31:52.361Z,96.20
2019-02-23T20:34:21.870Z,96.60
2019-02-23T20:36:51.373Z,96.70
2019-02-23T20:39:20.853Z,97.00
2019-02-23T20:41:50.354Z,97.10
2019-02-23T20:44:19.844Z,97.10
2019-02-23T20:46:49.362Z,97.20
2019-02-23T20:49:18.856Z,97.10
2019-02-23T20:51:48.308Z,97.50
2019-02-23T20:54:18.251Z,97.50
2019-02-23T20:56:47.742Z,97.40
2019-02-23T20:59:17.264Z,97.30
2019-02-23T21:01:46.731Z,96.70
2019-02-23T21:04:16.229Z,97.70
2019-02-23T21:06:45.722Z,98.00
2019-02-23T21:09:15.218Z,98.40
2019-02-23T21:11:44.684Z,98.30
2019-02-23T21:14:14.192Z,98.50
2019-02-23T21:16:43.692Z,98.20
2019-02-23T21:19:13.212Z,98.80
2019-02-23T21:21:42.747Z,99.30
2019-02-23T21:24:12.377Z,98.90
2019-02-23T21:26:41.861Z,99.10
2019-02-23T21:29:11.359Z,99.00
2019-02-23T21:31:40.837Z,99.40
2019-02-23T21:34:12.180Z,99.40
2019-02-23T21:36:41.934Z,99.60
2019-02-23T21:39:11.582Z,99.40
2019-02-23T21:41:41.072Z,99.20
2019-02-23T21:44:10.552Z,99.40
2019-02-23T21:46:40.052Z,99.40
2019-02-23T21:49:09.503Z,99.50
2019-02-23T21:51:39.022Z,99.70
2019-02-23T21:54:10.381Z,99.90
2019-02-23T21:56:39.602Z,99.90
2019-02-23T21:59:09.102Z,99.90
2019-02-23T22:01:38.570Z,99.90
2019-02-23T22:04:08.352Z,99.90
2019-02-23T22:06:37.852Z,99.90
2019-02-23T22:09:07.353Z,99.90
2019-02-23T22:11:36.851Z,99.90
2019-02-23T22:14:06.334Z,99.90
2019-02-23T22:16:35.854Z,99.90
2019-02-23T22:19:05.350Z,99.90
2019-02-23T22:21:34.846Z,99.90
2019-02-23T22:24:04.317Z,99.90
2019-02-23T22:26:33.852Z,99.90
2019-02-23T22:29:03.322Z,99.90
2019-02-23T22:31:32.825Z,99.90
2019-02-23T22:34:02.307Z,99.90
2019-02-23T22:36:31.817Z,99.90
2019-02-23T22:39:01.272Z,99.90
2019-02-23T22:41:30.769Z,99.90
2019-02-23T22:44:00.240Z,99.90
2019-02-23T22:46:29.730Z,99.90
2019-02-23T22:48:59.245Z,99.90
2019-02-23T22:51:28.749Z,99.90
2019-02-23T22:53:58.233Z,99.90
2019-02-23T22:56:27.744Z,99.90
2019-02-23T22:58:57.205Z,99.90
2019-02-23T23:01:26.902Z,99.90
2019-02-23T23:03:56.568Z,99.90
2019-02-23T23:06:27.249Z,99.90
2019-02-23T23:08:56.720Z,99.90
2019-02-23T23:11:26.194Z,99.90
2019-02-23T23:13:55.684Z,99.90
2019-02-23T23:16:25.214Z,99.90
2019-02-23T23:18:54.799Z,99.90
2019-02-23T23:21:24.297Z,99.90
2019-02-23T23:23:53.796Z,99.90
2019-02-23T23:26:23.317Z,99.90
2019-02-23T23:28:52.768Z,99.90
2019-02-23T23:32:15.434Z,99.90
2019-02-23T23:34:47.092Z,99.90
2019-02-23T23:37:16.572Z,99.90
2019-02-23T23:39:47.396Z,99.90
2019-02-23T23:42:17.588Z,99.90
2019-02-23T23:44:47.204Z,99.90
2019-02-23T23:47:16.757Z,99.90
2019-02-23T23:49:46.277Z,99.90
2019-02-23T23:52:15.921Z,99.90
2019-02-23T23:54:45.484Z,99.90
2019-02-23T23:57:15.019Z,99.90
2019-02-23T23:59:44.605Z,99.90
